Address 0x78a51222ccdca7866feb36d0e91e2424bbe1677e 17

Txn Hash Method
Block
From
To
Value [Txn Fee]
0xf1cfe87f4f562815c0226ee63c4d0f536bafecb813938c097fce7538129250feSet Lazy Price111540612022-07-01 14:16:282 days 22 hrs ago0x78a51222ccdca7866feb36d0e91e2424bbe1677eOUT0x9cde2fbb5b0dde94a2b2a62a8f27a7ccf64f2b190 AVAX0.002693601 27
0x61c63107cbfc75fb5d058c0cb7a74b9aa3f112eb28907022df4ac2660900780bStart Lazy Mint111540102022-07-01 14:14:442 days 22 hrs ago0x78a51222ccdca7866feb36d0e91e2424bbe1677eOUT0x9cde2fbb5b0dde94a2b2a62a8f27a7ccf64f2b190 AVAX0.00945257475 27.425
0x669787b8667f79cf8db004fb0e66bba134e82906cc0c5f6d98ecc5bb2c1e920cClaim109629252022-06-24 18:00:279 days 18 hrs ago0x78a51222ccdca7866feb36d0e91e2424bbe1677eOUT0xb605dfd2322d553f6eaf5346ac7f7de243717d070 AVAX0.003150666275 27.425
0x8813d0b7e558fc64e1a88fce14f63d1636445bb832d7579110b1ab2c1ed692e0Repay109290282022-06-23 10:56:5011 days 1 hr ago0x78a51222ccdca7866feb36d0e91e2424bbe1677eOUT0x7010aed06997f657c5902a23b9c28a54e85af3d10 AVAX0.001647913053 28.528375
0x64f0bee97112f226faa8a52262cf0296fc5653a9783c07ef4eff1dd25aef40dcBorrow109290162022-06-23 10:56:1211 days 1 hr ago0x78a51222ccdca7866feb36d0e91e2424bbe1677eOUT0x7010aed06997f657c5902a23b9c28a54e85af3d10 AVAX0.0026798655 26.5
0x5de04c82ad08acc13713137d31e1c013b07163285ed71c3d546c305e69fb0f960x174efba4109289992022-06-23 10:55:3711 days 1 hr ago0x78a51222ccdca7866feb36d0e91e2424bbe1677eOUT0x57f9cc4a25cc0f778b855d155cb9876e70eef4310 AVAX0.01190420985 29.85
0x1a4f181bf90d4fb628b054899e1ba5e3b94f70a8f9d27012ba1739ac3247f31fRepay109289892022-06-23 10:55:0411 days 1 hr ago0x78a51222ccdca7866feb36d0e91e2424bbe1677eOUT0x7010aed06997f657c5902a23b9c28a54e85af3d10 AVAX0.0017246136 29.85
0xaea3f50acad357cc4c99a9e73f07b1009cf3d3c895f91cfb8299a70299ad73efApprove109289802022-06-23 10:54:3111 days 1 hr ago0x78a51222ccdca7866feb36d0e91e2424bbe1677eOUT0xc16f720ae518ac888a93b932015f98b5bedce6c80 AVAX0.00125518848 26.94
0xdfb5ed808ed14e18894bb59d9148e658128c4e80a7d1b1b4645dc9b69504147bBorrow109289642022-06-23 10:53:5111 days 1 hr ago0x78a51222ccdca7866feb36d0e91e2424bbe1677eOUT0x7010aed06997f657c5902a23b9c28a54e85af3d10 AVAX0.0031330155 26.5
0x1d529cb2479ce976f1e9d1ed9890010c906a40d05c2cc7271bdd2d9c35dd9c970x174efba4109289502022-06-23 10:53:1111 days 1 hr ago0x78a51222ccdca7866feb36d0e91e2424bbe1677eOUT0x57f9cc4a25cc0f778b855d155cb9876e70eef4310 AVAX0.0110213765 26.5
0x088473b1fa054200bf5d1013a95f907b8777edcd28aca06e2eb851120cd404c8Approve109289412022-06-23 10:52:4511 days 1 hr ago0x78a51222ccdca7866feb36d0e91e2424bbe1677eOUT0xc16f720ae518ac888a93b932015f98b5bedce6c80 AVAX0.001234688 26.5
0x754e16e476daf54dbe47e0af49b15d67ccbe3c1fcdf7204c32bb608b064e3f21Deposit109289172022-06-23 10:51:4311 days 1 hr ago0x78a51222ccdca7866feb36d0e91e2424bbe1677eOUT0xb605dfd2322d553f6eaf5346ac7f7de243717d070 AVAX0.003975515293 29.42646405
0x482f58f68e9be3df6e393a75a36cfde5829a06951c9f63a08dea6dcaac0abe57Approve109289082022-06-23 10:51:1311 days 1 hr ago0x78a51222ccdca7866feb36d0e91e2424bbe1677eOUT0x91cfe29549cfa867b2f7ddaa557d7685fa0105180 AVAX0.001377416302 29.563365
0x6d79f37c523146a5766405f6b5a71246ebad4c4394760ad14041bd78e9718626Sell109288902022-06-23 10:50:1311 days 1 hr ago0x78a51222ccdca7866feb36d0e91e2424bbe1677eOUT0x8da86f4c82ed03b45e1d47858b7e04eca2e9b9880 AVAX0.0054670295 26.5
0x93fbda4aa71be75fa742eb9e96527cb462f24d85fd69ba07ae1f0268e30f9661Buy109288742022-06-23 10:49:3011 days 1 hr ago0x78a51222ccdca7866feb36d0e91e2424bbe1677eOUT0x8da86f4c82ed03b45e1d47858b7e04eca2e9b9880 AVAX0.0062557242 29.85
0x19f7c8290b29241f00abaf5a98032c865a3bafdf6ea917e7575df6adfb0bd335Approve109288642022-06-23 10:48:5711 days 1 hr ago0x78a51222ccdca7866feb36d0e91e2424bbe1677eOUT0x40e71a970ff1fbd21a53b4d2dbc102be0e1d574f0 AVAX0.001383279156 29.7045
0x85eaf081076e4a7a0dd5827ef3fd55096cd7ba698fa36ad91892b594698c7ec10x8a9b7a11109288382022-06-23 10:47:4911 days 1 hr ago0x78a51222ccdca7866feb36d0e91e2424bbe1677eOUT0x57f9cc4a25cc0f778b855d155cb9876e70eef4310 AVAX0.01330043801 37.61
0x02a25f8ff7bf4dd3d0176e1090a5e0acf15d2f032de7b607f4ab02af5e1ca04cApprove109288272022-06-23 10:47:2111 days 1 hr ago0x78a51222ccdca7866feb36d0e91e2424bbe1677eOUT0x40e71a970ff1fbd21a53b4d2dbc102be0e1d574f0 AVAX0.0013900548 29.85
0x63ddf0dc75e3650f609c5af5d1b84deffb0aeb162ab490615a4a4f5b73ff6a5cSell109288142022-06-23 10:46:5011 days 1 hr ago0x78a51222ccdca7866feb36d0e91e2424bbe1677eOUT0x8da86f4c82ed03b45e1d47858b7e04eca2e9b9880 AVAX0.0056805147 29.85
0x7ee71239f50927941557ae4447f0042d09088eb8f002c6c08bdfeffd310ed908Buy109287932022-06-23 10:45:3911 days 1 hr ago0x78a51222ccdca7866feb36d0e91e2424bbe1677eOUT0x8da86f4c82ed03b45e1d47858b7e04eca2e9b9880 AVAX0.006030104387 27.35225
0x34aec46ef698c3671a864df077ea3c3929c27d29652ac56c93fd21262fdf9dd5Buy109287792022-06-23 10:44:4511 days 1 hr ago0x78a51222ccdca7866feb36d0e91e2424bbe1677eOUT0x8da86f4c82ed03b45e1d47858b7e04eca2e9b9880 AVAX0.0062707089 29.85
0x57b2806f89728e02f415e79cd3b2433e9baf040ca6f91ede70150c70bd2ee833Approve109287692022-06-23 10:44:1211 days 1 hr ago0x78a51222ccdca7866feb36d0e91e2424bbe1677eOUT0x051de28a8b5836f678a13d19ee7f8c167b4ca54d0 AVAX0.0012771274 27.425
0xc66c898d0a80fd12ca221683679d3c5dc41cfc0d6f00f1ce497a6187b7713e360x8a9b7a11109287492022-06-23 10:43:1311 days 1 hr ago0x78a51222ccdca7866feb36d0e91e2424bbe1677eOUT0x57f9cc4a25cc0f778b855d155cb9876e70eef4310 AVAX0.0110813946 29.85
0x0f3163cd565250fbf7d9d9ec15c44088e21795fcf21a463a341f68c5f2888661Approve109287412022-06-23 10:42:4511 days 1 hr ago0x78a51222ccdca7866feb36d0e91e2424bbe1677eOUT0x051de28a8b5836f678a13d19ee7f8c167b4ca54d0 AVAX0.0013900548 29.85
0x767bc4229a33c3ddfbbf302a93e3a77b4b2a6548169c7cea91b860ba0f7518edSell109287282022-06-23 10:42:0311 days 1 hr ago0x78a51222ccdca7866feb36d0e91e2424bbe1677eOUT0x8da86f4c82ed03b45e1d47858b7e04eca2e9b9880 AVAX0.005574292488 29.293670128
[ Download CSV Export 
Latest 4 internal transactions
Parent Txn Hash Block From To Value
0x085d575ecbbff39eaa4df55b264acf01b7223cfdb79b4d8a6181efcac4f1c3c690088662022-04-27 3:38:1168 days 8 hrs ago 0xf5de760f2e916647fd766b4ad9e85ff943ce3a2b0x78a51222ccdca7866feb36d0e91e2424bbe1677e0.1 AVAX
0x303e0117b765424a6d1461ead7803d9ce161cc831c3bafd7ac30e5496eb91f4a84446182022-04-11 23:30:1583 days 13 hrs ago 0xf5de760f2e916647fd766b4ad9e85ff943ce3a2b0x78a51222ccdca7866feb36d0e91e2424bbe1677e0.1 AVAX
0xd7021c2190cb1a486d5d604c527de2fb50e423caa75442753a40de253722861380971002022-04-02 18:18:0092 days 18 hrs ago 0xf5de760f2e916647fd766b4ad9e85ff943ce3a2b0x78a51222ccdca7866feb36d0e91e2424bbe1677e0.1 AVAX
0xd759874a9fb7557a03f3a035a3b3ff4826503212b8a0a20a0c31b5af1c8b3ff958084242022-02-07 20:30:47146 days 16 hrs ago 0x780380eb4787775b07dfa60fb11c2cdad6a44f7c0x78a51222ccdca7866feb36d0e91e2424bbe1677e30.198 AVAX
[ Download CSV Export 
Loading

Contract Name:
0

Compiler Version
0

Optimization Enabled:
0

Other Settings:
-NA-
Block Transaction Gas Used Reward
Age Block Fee Address BC Fee Address Voting Power Jailed Incoming
Block Uncle Number Difficulty Gas Used Reward
Loading